RJSM(METAR)
10/16 18:00
METAR RJSM 160900Z 23005KT 9999 FEW030 SCT050 12/09 Q1022 RMK 1CU030
3SC050 A3019=
戻る
トップページへ戻る
IMOC Co,.Ltd.